createdAt,value
2022-12-01T00:01:30.517Z,86.54
2022-12-01T00:03:58.305Z,86.57
2022-12-01T00:06:25.993Z,86.42
2022-12-01T00:09:16.495Z,86.43
2022-12-01T00:11:48.346Z,86.42
2022-12-01T00:14:16.543Z,86.32
2022-12-01T00:16:44.742Z,86.42
2022-12-01T00:19:12.735Z,86.45
2022-12-01T00:21:40.311Z,86.62
2022-12-01T00:24:09.295Z,86.45
2022-12-01T00:26:38.168Z,86.39
2022-12-01T00:29:05.555Z,86.34
2022-12-01T00:31:33.029Z,86.38
2022-12-01T00:34:00.770Z,86.48
2022-12-01T00:36:28.229Z,86.41
2022-12-01T00:38:56.721Z,86.38
2022-12-01T00:41:25.719Z,86.46
2022-12-01T00:43:53.182Z,86.45
2022-12-01T00:46:20.967Z,86.29
2022-12-01T00:48:49.517Z,86.12
2022-12-01T00:51:16.945Z,86.09
2022-12-01T00:53:44.378Z,86.14
2022-12-01T00:56:12.095Z,86.19
2022-12-01T00:58:39.521Z,86.06
2022-12-01T01:01:07.067Z,86.07
2022-12-01T01:03:35.024Z,85.81
2022-12-01T01:06:09.118Z,85.54
2022-12-01T01:08:36.925Z,85.62
2022-12-01T01:11:05.360Z,85.68
2022-12-01T01:13:32.922Z,85.56
2022-12-01T01:16:15.234Z,85.30
2022-12-01T01:18:42.786Z,85.24
2022-12-01T01:21:16.151Z,85.36
2022-12-01T01:23:44.014Z,85.02
2022-12-01T01:26:18.459Z,84.85
2022-12-01T01:28:47.499Z,84.82
2022-12-01T01:31:20.597Z,84.72
2022-12-01T01:33:48.203Z,84.83
2022-12-01T01:36:17.045Z,84.59
2022-12-01T01:38:45.202Z,84.94
2022-12-01T01:41:12.702Z,84.80
2022-12-01T01:43:40.406Z,84.65
2022-12-01T01:46:10.345Z,84.42
2022-12-01T01:48:40.407Z,84.15
2022-12-01T01:51:09.802Z,84.27
2022-12-01T01:53:37.845Z,84.08
2022-12-01T01:56:07.374Z,84.05
2022-12-01T01:58:37.478Z,84.25
2022-12-01T02:01:05.775Z,84.18
2022-12-01T02:03:35.661Z,84.15
2022-12-01T02:06:05.172Z,84.08
2022-12-01T02:08:35.539Z,83.98
2022-12-01T02:11:49.238Z,84.33
2022-12-01T02:14:34.151Z,84.11
2022-12-01T02:17:20.467Z,84.18
2022-12-01T02:20:09.505Z,84.35
2022-12-01T02:23:03.406Z,84.60
2022-12-01T02:25:50.986Z,83.90
2022-12-01T02:28:30.166Z,84.45
2022-12-01T02:31:08.250Z,84.62
2022-12-01T02:33:46.738Z,84.19
2022-12-01T02:36:17.975Z,84.16
2022-12-01T02:39:00.388Z,83.89
2022-12-01T02:41:36.537Z,83.70
2022-12-01T02:44:24.131Z,83.65
2022-12-01T02:46:59.776Z,83.28
2022-12-01T02:49:36.171Z,83.41
2022-12-01T02:52:06.810Z,83.41
2022-12-01T02:54:34.904Z,83.15
2022-12-01T02:57:02.335Z,83.22
2022-12-01T02:59:30.031Z,83.20
2022-12-01T03:02:00.253Z,83.30
2022-12-01T03:04:53.129Z,83.12
2022-12-01T03:07:36.167Z,82.80
2022-12-01T03:10:21.708Z,82.84
2022-12-01T03:13:07.715Z,82.76
2022-12-01T03:16:01.963Z,82.64
2022-12-01T03:18:41.276Z,82.56
2022-12-01T03:21:14.218Z,82.36
2022-12-01T03:23:47.170Z,82.40
2022-12-01T03:26:19.780Z,82.50
2022-12-01T03:28:55.456Z,82.63
2022-12-01T03:31:33.576Z,82.72
2022-12-01T03:34:08.087Z,82.62
2022-12-01T03:36:58.219Z,82.65
2022-12-01T03:39:33.296Z,82.66
2022-12-01T03:42:17.189Z,82.59
2022-12-01T03:44:57.613Z,82.72
2022-12-01T03:47:35.801Z,82.84
2022-12-01T03:50:05.785Z,82.75
2022-12-01T03:52:47.893Z,82.82
2022-12-01T03:55:22.738Z,82.79
2022-12-01T03:57:52.033Z,83.08
2022-12-01T04:00:20.146Z,83.19
2022-12-01T04:02:48.991Z,82.89
2022-12-01T04:05:18.961Z,82.98
2022-12-01T04:07:50.399Z,83.07
2022-12-01T04:10:17.927Z,83.13
2022-12-01T04:12:45.378Z,83.18
2022-12-01T04:15:14.980Z,83.10
2022-12-01T04:17:44.317Z,83.28
2022-12-01T04:20:14.675Z,82.94
2022-12-01T04:22:42.461Z,82.94
2022-12-01T04:25:10.246Z,83.01
2022-12-01T04:27:38.025Z,82.83
2022-12-01T04:30:07.439Z,82.91
2022-12-01T04:32:39.894Z,82.84
2022-12-01T04:35:09.197Z,83.13
2022-12-01T04:37:37.434Z,82.75
2022-12-01T04:40:05.930Z,83.15
2022-12-01T04:42:33.598Z,82.98
2022-12-01T04:45:01.049Z,83.05
2022-12-01T04:47:28.442Z,82.89
2022-12-01T04:49:56.189Z,82.95
2022-12-01T04:52:23.639Z,83.11
2022-12-01T04:54:51.124Z,83.23
2022-12-01T04:57:18.873Z,83.16
2022-12-01T04:59:46.404Z,82.97
2022-12-01T05:02:13.971Z,82.97
2022-12-01T05:04:41.936Z,82.91
2022-12-01T05:07:09.503Z,82.94
2022-12-01T05:09:37.033Z,83.18
2022-12-01T05:12:05.066Z,83.24
2022-12-01T05:14:32.514Z,82.95
2022-12-01T05:17:00.659Z,83.25
2022-12-01T05:19:47.548Z,83.53
2022-12-01T05:22:15.219Z,83.60
2022-12-01T05:24:42.945Z,83.54
2022-12-01T05:27:10.378Z,83.29
2022-12-01T05:29:37.815Z,83.25
2022-12-01T05:32:06.065Z,83.34
2022-12-01T05:34:33.669Z,83.54
2022-12-01T05:37:01.097Z,83.47
2022-12-01T05:39:28.817Z,83.38
2022-12-01T05:41:56.295Z,83.45
2022-12-01T05:44:23.707Z,83.42
2022-12-01T05:46:51.474Z,83.32
2022-12-01T05:49:18.894Z,83.56
2022-12-01T05:51:46.305Z,83.56
2022-12-01T05:54:14.016Z,83.48
2022-12-01T05:56:43.488Z,83.57
2022-12-01T05:59:10.943Z,83.76
2022-12-01T06:01:38.751Z,83.53
2022-12-01T06:04:06.480Z,83.53
2022-12-01T06:06:33.961Z,83.68
2022-12-01T06:09:01.365Z,83.69
2022-12-01T06:11:29.055Z,83.76
2022-12-01T06:13:56.582Z,83.44
2022-12-01T06:16:24.080Z,83.27
2022-12-01T06:18:52.222Z,83.07
2022-12-01T06:21:19.622Z,83.11
2022-12-01T06:23:47.103Z,83.18
2022-12-01T06:26:14.786Z,83.08
2022-12-01T06:28:42.203Z,83.28
2022-12-01T06:31:09.645Z,83.25
2022-12-01T06:33:37.349Z,83.15
2022-12-01T06:36:06.996Z,83.20
2022-12-01T06:38:36.569Z,83.16
2022-12-01T06:41:05.524Z,83.15
2022-12-01T06:43:36.656Z,83.24
2022-12-01T06:46:06.055Z,83.28
2022-12-01T06:48:34.476Z,83.43
2022-12-01T06:51:02.368Z,83.61
2022-12-01T06:53:30.313Z,83.56
2022-12-01T06:56:04.701Z,83.61
2022-12-01T06:58:34.661Z,83.62
2022-12-01T07:01:11.977Z,83.44
2022-12-01T07:03:40.085Z,83.14
2022-12-01T07:06:07.530Z,83.30
2022-12-01T07:08:35.350Z,83.51
2022-12-01T07:11:06.243Z,83.64
2022-12-01T07:13:34.446Z,83.68
2022-12-01T07:16:03.481Z,83.61
2022-12-01T07:18:32.380Z,83.61
2022-12-01T07:21:01.503Z,83.50
2022-12-01T07:23:29.358Z,83.44
2022-12-01T07:26:06.250Z,83.37
2022-12-01T07:28:34.092Z,83.48
2022-12-01T07:31:21.935Z,83.61
2022-12-01T07:33:49.349Z,83.46
2022-12-01T07:36:17.197Z,83.43
2022-12-01T07:38:44.743Z,83.26
2022-12-01T07:41:14.986Z,83.10
2022-12-01T07:43:43.302Z,83.04
2022-12-01T07:46:22.239Z,83.30
2022-12-01T07:48:51.615Z,83.37
2022-12-01T07:51:19.904Z,83.14
2022-12-01T07:53:49.361Z,82.87
2022-12-01T07:56:18.065Z,82.75
2022-12-01T07:58:45.638Z,82.35
2022-12-01T08:01:17.518Z,82.16
2022-12-01T08:03:45.334Z,81.84
2022-12-01T08:06:12.754Z,81.72
2022-12-01T08:08:41.388Z,81.65
2022-12-01T08:11:15.161Z,81.59
2022-12-01T08:13:43.117Z,81.68
2022-12-01T08:16:13.759Z,80.87
2022-12-01T08:18:42.357Z,81.14
2022-12-01T08:21:12.771Z,81.08
2022-12-01T08:23:42.222Z,81.14
2022-12-01T08:26:14.259Z,81.02
2022-12-01T08:28:42.817Z,80.91
2022-12-01T08:31:14.343Z,80.83
2022-12-01T08:33:42.237Z,81.12
2022-12-01T08:36:10.087Z,81.18
2022-12-01T08:38:37.954Z,81.04
2022-12-01T08:41:08.866Z,80.52
2022-12-01T08:44:00.411Z,80.57
2022-12-01T08:46:31.728Z,79.71
2022-12-01T08:48:59.416Z,79.74
2022-12-01T08:51:27.786Z,79.68
2022-12-01T08:53:57.506Z,79.70
2022-12-01T08:56:37.935Z,79.12
2022-12-01T08:59:06.007Z,79.31
2022-12-01T09:01:34.210Z,79.61
2022-12-01T09:04:06.195Z,79.15
2022-12-01T09:06:42.551Z,78.98
2022-12-01T09:09:12.605Z,79.15
2022-12-01T09:11:41.079Z,78.61
2022-12-01T09:14:08.539Z,78.57
2022-12-01T09:16:36.208Z,78.36
2022-12-01T09:19:04.317Z,78.36
2022-12-01T09:21:33.966Z,78.12
2022-12-01T09:24:02.475Z,77.92
2022-12-01T09:26:30.612Z,78.30
2022-12-01T09:29:04.658Z,77.85
2022-12-01T09:31:32.968Z,77.63
2022-12-01T09:34:03.679Z,76.49
2022-12-01T09:36:32.944Z,76.39
2022-12-01T09:39:01.110Z,77.23
2022-12-01T09:41:39.654Z,76.82
2022-12-01T09:44:14.096Z,76.56
2022-12-01T09:46:51.733Z,77.17
2022-12-01T09:49:25.286Z,75.89
2022-12-01T09:51:54.353Z,75.72
2022-12-01T09:54:22.215Z,76.67
2022-12-01T09:56:53.366Z,76.74
2022-12-01T09:59:24.626Z,76.17
2022-12-01T10:01:56.966Z,75.49
2022-12-01T10:04:31.513Z,75.02
2022-12-01T10:07:12.829Z,75.36
2022-12-01T10:09:56.053Z,74.30
2022-12-01T10:12:27.923Z,73.50
2022-12-01T10:15:16.797Z,72.87
2022-12-01T10:17:53.130Z,72.90
2022-12-01T10:20:34.300Z,72.70
2022-12-01T10:23:15.361Z,72.84
2022-12-01T10:26:03.390Z,73.54
2022-12-01T10:28:36.474Z,73.21
2022-12-01T10:31:20.956Z,73.36
2022-12-01T10:33:59.802Z,72.90
2022-12-01T10:36:29.258Z,72.72
2022-12-01T10:38:56.725Z,73.43
2022-12-01T10:41:27.953Z,71.28
2022-12-01T10:44:01.015Z,71.15
2022-12-01T10:46:54.732Z,71.37
2022-12-01T10:49:36.959Z,70.95
2022-12-01T10:52:04.612Z,71.23
2022-12-01T10:54:36.786Z,71.24
2022-12-01T10:57:06.334Z,71.15
2022-12-01T10:59:56.898Z,71.40
2022-12-01T11:02:27.596Z,71.67
2022-12-01T11:04:57.742Z,71.25
2022-12-01T11:07:33.118Z,71.48
2022-12-01T11:10:18.686Z,71.41
2022-12-01T11:12:54.301Z,71.75
2022-12-01T11:15:26.674Z,72.10
2022-12-01T11:18:04.419Z,72.36
2022-12-01T11:20:35.341Z,72.46
2022-12-01T11:23:25.159Z,72.58
2022-12-01T11:26:17.790Z,72.67
2022-12-01T11:29:07.262Z,73.21
2022-12-01T11:31:46.653Z,73.35
2022-12-01T11:34:26.405Z,73.39
2022-12-01T11:36:58.079Z,72.54
2022-12-01T11:39:40.165Z,71.08
2022-12-01T11:42:13.699Z,70.13
2022-12-01T11:44:51.822Z,69.90
2022-12-01T11:47:24.344Z,69.46
2022-12-01T11:50:01.951Z,68.55
2022-12-01T11:52:32.825Z,68.25
2022-12-01T11:55:26.915Z,67.45
2022-12-01T11:58:03.963Z,66.08
2022-12-01T12:00:46.834Z,66.46
2022-12-01T12:03:33.668Z,66.30
2022-12-01T12:06:39.894Z,65.94
2022-12-01T12:09:10.860Z,66.13
2022-12-01T12:11:49.034Z,66.50
2022-12-01T12:14:43.705Z,65.69
2022-12-01T12:17:27.942Z,66.82
2022-12-01T12:20:15.243Z,67.46
2022-12-01T12:23:04.420Z,67.94
2022-12-01T12:25:55.491Z,68.37
2022-12-01T12:28:22.888Z,68.71
2022-12-01T12:31:35.186Z,68.98
2022-12-01T12:34:08.085Z,69.69
2022-12-01T12:37:26.642Z,69.56
2022-12-01T12:40:15.841Z,70.10
2022-12-01T12:43:04.898Z,70.32
2022-12-01T12:45:41.294Z,69.76
2022-12-01T12:49:22.691Z,70.23
2022-12-01T12:52:08.414Z,70.26
2022-12-01T12:54:59.869Z,69.97
2022-12-01T12:57:55.674Z,69.85
2022-12-01T13:00:28.927Z,70.42
2022-12-01T13:03:15.857Z,71.39
2022-12-01T13:05:50.563Z,71.86
2022-12-01T13:08:23.962Z,72.22
2022-12-01T13:11:04.778Z,71.71
2022-12-01T13:13:54.152Z,71.86
2022-12-01T13:16:34.018Z,72.40
2022-12-01T13:19:23.239Z,72.18
2022-12-01T13:21:53.563Z,72.74
2022-12-01T13:24:24.586Z,73.22
2022-12-01T13:26:57.818Z,73.55
2022-12-01T13:29:27.474Z,74.17
2022-12-01T13:31:55.592Z,74.50
2022-12-01T13:34:29.401Z,74.07
2022-12-01T13:36:57.200Z,73.85
2022-12-01T13:39:29.485Z,74.26
2022-12-01T13:42:00.688Z,74.15
2022-12-01T13:44:32.801Z,74.09
2022-12-01T13:47:26.384Z,74.22
2022-12-01T13:49:53.943Z,74.47
2022-12-01T13:52:21.588Z,74.52
2022-12-01T13:55:10.844Z,74.33
2022-12-01T13:57:44.326Z,74.88
2022-12-01T14:00:27.211Z,75.12
2022-12-01T14:03:13.353Z,75.56
2022-12-01T14:05:40.796Z,75.86
2022-12-01T14:08:23.346Z,76.02
2022-12-01T14:11:00.710Z,75.87
2022-12-01T14:13:29.881Z,76.27
2022-12-01T14:16:03.428Z,76.15
2022-12-01T14:18:35.826Z,76.40
2022-12-01T14:21:06.987Z,76.96
2022-12-01T14:24:05.476Z,77.17
2022-12-01T14:26:44.967Z,77.54
2022-12-01T14:29:29.130Z,77.52
2022-12-01T14:32:02.458Z,77.80
2022-12-01T14:34:34.218Z,77.92
2022-12-01T14:37:16.906Z,78.22
2022-12-01T14:39:49.836Z,78.17
2022-12-01T14:42:48.958Z,77.90
2022-12-01T14:45:21.911Z,78.05
2022-12-01T14:47:59.626Z,78.46
2022-12-01T14:50:42.229Z,78.50
2022-12-01T14:53:27.299Z,78.72
2022-12-01T14:56:14.166Z,79.00
2022-12-01T14:58:55.344Z,79.29
2022-12-01T15:01:24.422Z,79.47
2022-12-01T15:03:55.594Z,79.42
2022-12-01T15:06:27.250Z,80.03
2022-12-01T15:12:08.915Z,80.29
2022-12-01T15:14:47.557Z,80.52
2022-12-01T15:17:37.007Z,80.83
2022-12-01T15:20:25.008Z,80.92
2022-12-01T15:22:53.205Z,80.97
2022-12-01T15:25:21.334Z,81.06
2022-12-01T15:28:11.934Z,81.24
2022-12-01T15:30:45.587Z,81.35
2022-12-01T15:33:37.211Z,81.57
2022-12-01T15:36:07.610Z,82.00
2022-12-01T15:38:37.946Z,82.15
2022-12-01T15:43:59.023Z,82.17
2022-12-01T15:46:32.406Z,82.15
2022-12-01T15:49:18.093Z,81.94
2022-12-01T15:51:47.997Z,81.91
2022-12-01T15:54:29.050Z,82.26
2022-12-01T15:57:01.632Z,82.24
2022-12-01T15:59:34.964Z,82.24
2022-12-01T16:02:33.543Z,82.51
2022-12-01T16:05:17.161Z,82.32
2022-12-01T16:10:35.998Z,82.26
2022-12-01T16:13:38.363Z,82.12
2022-12-01T16:16:29.989Z,82.00
2022-12-01T16:19:09.342Z,82.00
2022-12-01T16:21:49.827Z,82.46
2022-12-01T16:24:22.443Z,82.50
2022-12-01T16:27:00.618Z,82.56
2022-12-01T16:29:29.942Z,82.42
2022-12-01T16:32:24.189Z,82.38
2022-12-01T16:34:53.334Z,82.17
2022-12-01T16:37:22.365Z,81.90
2022-12-01T16:39:50.104Z,82.08
2022-12-01T16:42:23.495Z,82.01
2022-12-01T16:44:52.247Z,81.95
2022-12-01T16:47:21.586Z,81.87
2022-12-01T16:49:49.901Z,81.55
2022-12-01T16:55:33.197Z,81.37
2022-12-01T16:58:00.975Z,81.07
2022-12-01T17:00:29.504Z,80.92
2022-12-01T17:02:57.555Z,80.75
2022-12-01T17:05:25.523Z,80.97
2022-12-01T17:07:53.444Z,80.87
2022-12-01T17:10:21.841Z,80.92
2022-12-01T17:12:50.630Z,81.07
2022-12-01T17:15:18.427Z,81.07
2022-12-01T17:17:45.992Z,80.84
2022-12-01T17:20:14.199Z,80.79
2022-12-01T17:22:41.685Z,80.74
2022-12-01T17:25:12.573Z,80.65
2022-12-01T17:27:41.987Z,80.75
2022-12-01T17:30:10.532Z,81.12
2022-12-01T17:32:38.691Z,81.24
2022-12-01T17:35:06.860Z,81.26
2022-12-01T17:37:36.912Z,81.18
2022-12-01T17:40:06.530Z,81.19
2022-12-01T17:42:34.596Z,81.23
2022-12-01T17:45:02.303Z,81.24
2022-12-01T17:47:29.741Z,81.19
2022-12-01T17:49:57.493Z,81.09
2022-12-01T17:52:28.406Z,81.13
2022-12-01T17:54:56.596Z,81.24
2022-12-01T17:57:24.366Z,81.50
2022-12-01T17:59:51.781Z,81.71
2022-12-01T18:02:20.165Z,81.83
2022-12-01T18:04:48.013Z,81.84
2022-12-01T18:07:15.547Z,81.79
2022-12-01T18:09:42.949Z,81.73
2022-12-01T18:12:11.127Z,81.64
2022-12-01T18:14:38.636Z,81.60
2022-12-01T18:17:06.327Z,81.39
2022-12-01T18:19:34.019Z,81.41
2022-12-01T18:22:01.737Z,81.32
2022-12-01T18:24:32.038Z,81.20
2022-12-01T18:26:59.905Z,81.23
2022-12-01T18:29:28.771Z,81.16
2022-12-01T18:31:57.888Z,81.10
2022-12-01T18:34:26.783Z,81.41
2022-12-01T18:36:54.267Z,81.76
2022-12-01T18:39:21.942Z,82.19
2022-12-01T18:41:50.072Z,82.54
2022-12-01T18:44:17.537Z,82.80
2022-12-01T18:46:45.033Z,83.25
2022-12-01T18:49:13.475Z,83.45
2022-12-01T18:51:41.277Z,83.81
2022-12-01T18:54:13.186Z,84.01
2022-12-01T18:56:41.394Z,83.96
2022-12-01T18:59:11.074Z,84.00
2022-12-01T19:01:41.161Z,84.07
2022-12-01T19:04:10.091Z,84.10
2022-12-01T19:06:39.649Z,83.99
2022-12-01T19:09:09.495Z,84.13
2022-12-01T19:11:38.345Z,84.21
2022-12-01T19:14:06.074Z,84.19
2022-12-01T19:16:33.825Z,84.38
2022-12-01T19:19:01.722Z,84.57
2022-12-01T19:21:29.325Z,84.93
2022-12-01T19:23:56.943Z,85.16
2022-12-01T19:26:25.956Z,85.18
2022-12-01T19:28:53.535Z,85.38
2022-12-01T19:31:23.930Z,85.40
2022-12-01T19:33:53.924Z,85.48
2022-12-01T19:36:23.970Z,85.56
2022-12-01T19:38:52.617Z,85.81
2022-12-01T19:41:25.220Z,86.06
2022-12-01T19:43:54.006Z,86.07
2022-12-01T19:46:24.477Z,86.18
2022-12-01T19:48:57.779Z,86.25
2022-12-01T19:51:28.556Z,86.33
2022-12-01T19:53:56.262Z,86.41
2022-12-01T19:56:24.385Z,86.39
2022-12-01T19:58:52.352Z,86.33
2022-12-01T20:01:21.231Z,86.33
2022-12-01T20:03:51.481Z,86.31
2022-12-01T20:06:24.758Z,86.24
2022-12-01T20:08:54.250Z,86.16
2022-12-01T20:11:22.008Z,86.31
2022-12-01T20:13:49.863Z,86.29
2022-12-01T20:16:21.180Z,86.31
2022-12-01T20:18:49.352Z,86.09
2022-12-01T20:21:22.786Z,85.90
2022-12-01T20:23:57.788Z,85.56
2022-12-01T20:26:42.185Z,85.25
2022-12-01T20:29:18.691Z,84.97
2022-12-01T20:31:47.980Z,85.03
2022-12-01T20:34:19.213Z,85.37
2022-12-01T20:36:48.254Z,85.51
2022-12-01T20:39:16.117Z,85.88
2022-12-01T20:41:44.957Z,86.06
2022-12-01T20:44:13.881Z,86.15
2022-12-01T20:46:41.356Z,86.24
2022-12-01T20:49:09.513Z,86.05
2022-12-01T20:51:37.330Z,85.87
2022-12-01T20:56:55.551Z,85.16
2022-12-01T20:59:23.229Z,84.92
2022-12-01T21:01:50.873Z,84.80
2022-12-01T21:04:18.646Z,84.75
2022-12-01T21:06:46.346Z,84.63
2022-12-01T21:09:14.923Z,84.53
2022-12-01T21:12:05.394Z,84.33
2022-12-01T21:14:37.691Z,84.16
2022-12-01T21:17:37.401Z,84.11
2022-12-01T21:20:23.365Z,83.90
2022-12-01T21:22:51.616Z,83.94
2022-12-01T21:25:22.395Z,84.07
2022-12-01T21:27:50.655Z,84.24
2022-12-01T21:30:21.946Z,84.61
2022-12-01T21:32:49.898Z,84.63
2022-12-01T21:35:19.340Z,84.41
2022-12-01T21:37:48.430Z,84.00
2022-12-01T21:40:17.035Z,83.98
2022-12-01T21:42:45.189Z,84.37
2022-12-01T21:45:18.124Z,84.35
2022-12-01T21:47:45.919Z,84.58
2022-12-01T21:50:21.026Z,84.85
2022-12-01T21:52:49.447Z,85.05
2022-12-01T21:55:16.798Z,84.71
2022-12-01T21:57:47.217Z,84.36
2022-12-01T22:00:30.185Z,84.01
2022-12-01T22:03:21.987Z,83.63
2022-12-01T22:06:21.381Z,83.37
2022-12-01T22:08:43.283Z,83.26
2022-12-01T22:11:24.198Z,83.06
2022-12-01T22:13:54.459Z,83.20
2022-12-01T22:16:29.276Z,83.18
2022-12-01T22:18:59.672Z,83.45
2022-12-01T22:21:36.734Z,83.91
2022-12-01T22:24:10.193Z,84.20
2022-12-01T22:26:41.089Z,83.84
2022-12-01T22:29:30.735Z,84.25
2022-12-01T22:32:23.747Z,84.67
2022-12-01T22:34:55.354Z,85.52
2022-12-01T22:37:29.581Z,85.57
2022-12-01T22:39:57.533Z,84.66
2022-12-01T22:42:34.642Z,84.36
2022-12-01T22:45:27.700Z,84.20
2022-12-01T22:48:00.413Z,84.50
2022-12-01T22:50:31.101Z,84.55
2022-12-01T22:53:16.444Z,84.58
2022-12-01T22:55:44.357Z,84.36
2022-12-01T22:58:40.985Z,84.32
2022-12-01T23:01:22.525Z,84.50
2022-12-01T23:03:50.581Z,84.55
2022-12-01T23:06:54.481Z,84.71
2022-12-01T23:09:23.946Z,84.48
2022-12-01T23:12:09.751Z,84.60
2022-12-01T23:14:49.838Z,84.64
2022-12-01T23:17:24.574Z,85.00
2022-12-01T23:19:54.234Z,84.65
2022-12-01T23:22:21.980Z,84.88
2022-12-01T23:24:49.745Z,85.05
2022-12-01T23:27:18.159Z,84.89
2022-12-01T23:29:45.907Z,84.69
2022-12-01T23:32:13.345Z,84.63
2022-12-01T23:34:40.813Z,84.29
2022-12-01T23:37:37.110Z,84.73
2022-12-01T23:40:15.973Z,84.67
2022-12-01T23:42:43.827Z,84.76
2022-12-01T23:45:23.574Z,84.24
2022-12-01T23:47:54.526Z,83.92
2022-12-01T23:50:25.698Z,83.86
2022-12-01T23:52:54.318Z,83.83
2022-12-01T23:55:27.189Z,83.66
2022-12-01T23:57:55.701Z,83.62
